Shinkomaru No.8 — JK5142 — position and weather

sailwx.info

Track history (hours):
 
Tides and Currents Weather Stations Pressure Air Temp Water Temp Dewpoint Dewpoint Depression Visibility Wind Speed Wind Dir Waves Ship Positions

Shinkomaru No.8

Last reported at 2016-Jun-19 09:27 UTC. Time now 2016-Jul-25 00:17 UTC.
Position N 34°37' E 134°54'.
Warning: this ship's position is 35 days out of date.

Length 61 m; draft 4.5 m.

Type: Tanker. MMSI: 431400035.

Date/timePositionNaut miles runAvg speedWind from/ knotsBaromVisibWave heightAir tempDewpointWater temp
2016-Jun-19 09:27N 34°37' E 134°54'1011.4
2016-Jun-19 08:33N 34°33' E 135°05'1312.5
2016-Jun-19 07:30N 34°20' E 135°04'6 5.9
2016-Jun-19 06:31N 34°14' E 135°07'0 0.0
2016-Jun-19 05:31N 34°14' E 135°07'0 0.0
2016-Jun-19 04:31N 34°14' E 135°07'0 0.0
2016-Jun-19 03:31N 34°14' E 135°07'0 0.0
2016-Jun-19 02:31N 34°14' E 135°07'0 0.0
2016-Jun-19 01:31N 34°14' E 135°07'0 0.0
2016-Jun-19 00:31N 34°14' E 135°07'0 0.0
2016-Jun-18 23:30N 34°14' E 135°07'0 0.0
2016-Jun-18 22:30N 34°14' E 135°07'1 0.9
2016-Jun-18 21:33N 34°15' E 135°06'0 0.0
2016-Jun-18 20:32N 34°15' E 135°06'0 0.0
2016-Jun-18 19:31N 34°15' E 135°06'0 0.0
2016-Jun-18 18:32N 34°15' E 135°06'0 0.0
2016-Jun-18 17:33N 34°15' E 135°06'10 8.6
2016-Jun-18 16:26N 34°13' E 134°55'  
2016-Jun-15 02:33N 34°36' E 135°04'1111.3
2016-Jun-15 01:33N 34°39' E 135°18'1 0.2
2016-Jun-14 19:14N 34°39' E 135°19'0 0.1
2016-Jun-14 18:32N 34°39' E 135°19'0 0.0
2016-Jun-14 17:26N 34°39' E 135°19'0 0.0
2016-Jun-14 16:32N 34°39' E 135°19'0 0.0
2016-Jun-14 15:32N 34°39' E 135°19'0 0.0
2016-Jun-14 14:32N 34°39' E 135°19'0 0.0
2016-Jun-14 13:32N 34°39' E 135°19'0 0.0
2016-Jun-14 12:32N 34°39' E 135°19'0 0.0
2016-Jun-14 11:26N 34°39' E 135°19'0 0.0
2016-Jun-14 10:32N 34°39' E 135°19'1 0.6
2016-Jun-14 09:33N 34°38' E 135°19'1212.1
2016-Jun-14 08:33N 34°35' E 135°05'1110.6
2016-Jun-14 07:29N 34°38' E 134°51'14 0.5
2016-Jun-13 04:33N 34°36' E 135°08'9 7.2
2016-Jun-13 03:16N 34°39' E 135°19'0 0.2
2016-Jun-13 02:32N 34°39' E 135°19'1 1.3
2016-Jun-13 01:34N 34°39' E 135°18'0 0.0
2016-Jun-13 00:16N 34°39' E 135°18'0 0.0
2016-Jun-12 23:34N 34°39' E 135°18'0 0.1
2016-Jun-12 22:28N 34°39' E 135°18'1 1.4
2016-Jun-12 21:33N 34°39' E 135°19'0 0.1
2016-Jun-12 20:24N 34°39' E 135°19'3 4.2
2016-Jun-12 19:33N 34°36' E 135°16'1111.1
2016-Jun-12 18:33N 34°36' E 135°03'  
2016-Jun-09 10:27N 34°37' E 134°54'9 9.9
2016-Jun-09 09:33N 34°36' E 135°04'  
Track history (hours):
 
Tides and Currents Weather Stations Pressure Air Temp Water Temp Dewpoint Dewpoint Depression Visibility Wind Speed Wind Dir Waves Ship Positions

Shinkomaru No.8

Last reported at 2016-Jun-19 09:27 UTC. Time now 2016-Jul-25 00:17 UTC.
Position N 34°37' E 134°54'.
Warning: this ship's position is 35 days out of date.

Length 61 m; draft 4.5 m.

Type: Tanker. MMSI: 431400035.

Date/timePositionNaut miles runAvg speedWind from/ knotsBaromVisibWave heightAir tempDewpointWater temp
2016-Jun-19 09:27N 34°37' E 134°54'1011.4
2016-Jun-19 08:33N 34°33' E 135°05'1312.5
2016-Jun-19 07:30N 34°20' E 135°04'6 5.9
2016-Jun-19 06:31N 34°14' E 135°07'0 0.0
2016-Jun-19 05:31N 34°14' E 135°07'0 0.0
2016-Jun-19 04:31N 34°14' E 135°07'0 0.0
2016-Jun-19 03:31N 34°14' E 135°07'0 0.0
2016-Jun-19 02:31N 34°14' E 135°07'0 0.0
2016-Jun-19 01:31N 34°14' E 135°07'0 0.0
2016-Jun-19 00:31N 34°14' E 135°07'0 0.0
2016-Jun-18 23:30N 34°14' E 135°07'0 0.0
2016-Jun-18 22:30N 34°14' E 135°07'1 0.9
2016-Jun-18 21:33N 34°15' E 135°06'0 0.0
2016-Jun-18 20:32N 34°15' E 135°06'0 0.0
2016-Jun-18 19:31N 34°15' E 135°06'0 0.0
2016-Jun-18 18:32N 34°15' E 135°06'0 0.0
2016-Jun-18 17:33N 34°15' E 135°06'10 8.6
2016-Jun-18 16:26N 34°13' E 134°55'  
2016-Jun-15 02:33N 34°36' E 135°04'1111.3
2016-Jun-15 01:33N 34°39' E 135°18'1 0.2
2016-Jun-14 19:14N 34°39' E 135°19'0 0.1
2016-Jun-14 18:32N 34°39' E 135°19'0 0.0
2016-Jun-14 17:26N 34°39' E 135°19'0 0.0
2016-Jun-14 16:32N 34°39' E 135°19'0 0.0
2016-Jun-14 15:32N 34°39' E 135°19'0 0.0
2016-Jun-14 14:32N 34°39' E 135°19'0 0.0
2016-Jun-14 13:32N 34°39' E 135°19'0 0.0
2016-Jun-14 12:32N 34°39' E 135°19'0 0.0
2016-Jun-14 11:26N 34°39' E 135°19'0 0.0
2016-Jun-14 10:32N 34°39' E 135°19'1 0.6
2016-Jun-14 09:33N 34°38' E 135°19'1212.1
2016-Jun-14 08:33N 34°35' E 135°05'1110.6
2016-Jun-14 07:29N 34°38' E 134°51'14 0.5
2016-Jun-13 04:33N 34°36' E 135°08'9 7.2
2016-Jun-13 03:16N 34°39' E 135°19'0 0.2
2016-Jun-13 02:32N 34°39' E 135°19'1 1.3
2016-Jun-13 01:34N 34°39' E 135°18'0 0.0
2016-Jun-13 00:16N 34°39' E 135°18'0 0.0
2016-Jun-12 23:34N 34°39' E 135°18'0 0.1
2016-Jun-12 22:28N 34°39' E 135°18'1 1.4
2016-Jun-12 21:33N 34°39' E 135°19'0 0.1
2016-Jun-12 20:24N 34°39' E 135°19'3 4.2
2016-Jun-12 19:33N 34°36' E 135°16'1111.1
2016-Jun-12 18:33N 34°36' E 135°03'  
2016-Jun-09 10:27N 34°37' E 134°54'9 9.9
2016-Jun-09 09:33N 34°36' E 135°04'  

Dump ship's entire track history